Time;durP1;ratioP1;P1;durP2;ratioP2;P2;SDS_P1;SDS_P2;PMS_P1;PMS_P2;Temp;Humidity;BMP_temperature;BMP_pressure;BME280_temperature;BME280_humidity;BME280_pressure;Samples;Min_cycle;Max_cycle;Signal;HPM_P1;HPM_P2
2024/03/03 00:03:43;;;;;;;4.47;2.15;;;11.50;1.00;;;;;;20764535;28;20456;-39
2024/03/03 00:13:44;;;;;;;4.65;3.33;;;11.50;1.00;;;;;;20766994;28;20516;-40
2024/03/03 00:23:45;;;;;;;7.70;3.50;;;11.50;1.00;;;;;;20758050;28;20072;-40
2024/03/03 00:33:46;;;;;;;5.15;3.35;;;11.30;1.00;;;;;;20776638;28;20588;-40
2024/03/03 00:43:47;;;;;;;7.13;4.00;;;11.30;1.00;;;;;;20769620;28;20421;-40
2024/03/03 00:53:47;;;;;;;5.57;3.67;;;11.40;1.00;;;;;;20770259;28;20484;-40
2024/03/03 01:03:48;;;;;;;4.90;3.53;;;11.20;1.00;;;;;;20785388;28;20037;-40
2024/03/03 01:13:49;;;;;;;5.70;3.93;;;11.30;1.00;;;;;;20789671;28;21103;-40
2024/03/03 01:23:49;;;;;;;6.93;3.83;;;11.20;1.00;;;;;;20789026;28;20034;-40
2024/03/03 01:33:50;;;;;;;6.70;4.10;;;11.00;1.00;;;;;;20771206;28;20132;-40
2024/03/03 01:43:51;;;;;;;5.95;3.92;;;10.90;1.00;;;;;;20775831;28;20107;-40
2024/03/03 01:53:53;;;;;;;6.20;4.13;;;10.90;1.00;;;;;;20772657;28;20487;-40
2024/03/03 02:03:54;;;;;;;5.28;3.60;;;10.90;1.00;;;;;;20773079;28;20037;-40
2024/03/03 02:13:55;;;;;;;5.93;3.97;;;10.90;1.00;;;;;;20779656;28;20058;-40
2024/03/03 02:23:56;;;;;;;5.75;3.72;;;11.10;1.00;;;;;;20771421;28;20057;-40
2024/03/03 02:33:56;;;;;;;6.00;3.97;;;11.20;1.00;;;;;;20777862;28;20531;-39
2024/03/03 02:43:57;;;;;;;7.43;3.78;;;11.10;1.00;;;;;;20755422;28;20060;-40
2024/03/03 02:53:57;;;;;;;6.35;3.65;;;11.00;1.00;;;;;;20756909;28;20050;-40
2024/03/03 03:03:58;;;;;;;5.40;3.50;;;10.90;1.00;;;;;;20775694;28;20083;-40
2024/03/03 03:13:59;;;;;;;5.88;3.72;;;10.90;1.00;;;;;;20752649;28;20053;-40
2024/03/03 03:23:59;;;;;;;7.50;3.80;;;10.90;1.00;;;;;;20772722;28;20142;-39
2024/03/03 03:34:00;;;;;;;6.40;3.97;;;10.90;1.00;;;;;;21111186;22;20389;-39
2024/03/03 03:44:01;;;;;;;6.57;4.18;;;10.80;1.00;;;;;;20688936;28;20045;-39
2024/03/03 03:54:03;;;;;;;5.78;4.20;;;10.70;1.00;;;;;;20683060;28;20044;-39
2024/03/03 04:04:04;;;;;;;7.47;4.22;;;10.70;1.00;;;;;;20678961;28;20073;-39
2024/03/03 04:14:05;;;;;;;7.70;4.22;;;10.70;1.00;;;;;;20679568;28;20050;-39
2024/03/03 04:24:06;;;;;;;7.32;4.82;;;10.70;1.00;;;;;;20691405;28;20443;-39
2024/03/03 04:34:07;;;;;;;5.43;3.90;;;10.70;1.00;;;;;;20683606;28;20054;-39
2024/03/03 04:44:07;;;;;;;6.93;4.35;;;10.60;1.00;;;;;;20694344;28;20045;-39
2024/03/03 04:54:09;;;;;;;7.13;5.40;;;10.50;1.00;;;;;;20698469;28;20039;-39
2024/03/03 05:04:10;;;;;;;9.85;5.45;;;10.30;1.00;;;;;;20692607;28;20045;-39
2024/03/03 05:14:10;;;;;;;7.05;4.68;;;10.30;1.00;;;;;;20697825;28;20040;-42
2024/03/03 05:24:11;;;;;;;8.90;5.63;;;10.20;1.00;;;;;;20655140;28;20163;-39
2024/03/03 05:34:12;;;;;;;9.45;5.88;;;10.20;1.00;;;;;;20700461;28;20427;-39
2024/03/03 05:44:14;;;;;;;9.52;5.90;;;10.30;1.00;;;;;;20674487;28;20366;-39
2024/03/03 05:54:14;;;;;;;10.27;6.32;;;10.20;1.00;;;;;;20698060;28;20058;-39
2024/03/03 06:04:18;;;;;;;8.77;5.80;;;10.30;1.00;;;;;;20698294;28;20026;-39
2024/03/03 06:14:19;;;;;;;13.63;7.07;;;10.20;1.00;;;;;;20648890;28;20088;-39
2024/03/03 06:24:19;;;;;;;10.43;7.03;;;10.20;1.00;;;;;;20646681;28;20366;-39
2024/03/03 06:34:20;;;;;;;13.37;7.60;;;10.20;1.00;;;;;;20694731;28;20046;-39
2024/03/03 06:44:21;;;;;;;11.85;7.35;;;10.10;1.00;;;;;;20695043;28;20425;-39
2024/03/03 06:54:21;;;;;;;13.48;8.48;;;10.00;1.00;;;;;;20694423;28;20540;-39
2024/03/03 07:04:25;;;;;;;11.95;7.60;;;10.00;1.00;;;;;;20688788;28;20113;-39
2024/03/03 07:14:26;;;;;;;11.93;7.40;;;10.00;1.00;;;;;;20695245;28;20402;-39
2024/03/03 07:24:26;;;;;;;12.75;7.75;;;10.10;1.00;;;;;;20696857;28;20042;-39
2024/03/03 07:34:27;;;;;;;12.73;8.45;;;10.10;1.00;;;;;;20688915;28;20046;-39
2024/03/03 07:44:27;;;;;;;13.02;7.70;;;10.20;1.00;;;;;;20658079;28;20185;-39
2024/03/03 07:54:28;;;;;;;12.38;7.97;;;10.30;1.00;;;;;;20588647;28;20181;-39
2024/03/03 08:04:28;;;;;;;11.50;7.05;;;10.40;1.00;;;;;;20601607;28;20045;-39
2024/03/03 08:14:29;;;;;;;14.02;7.95;;;10.50;1.00;;;;;;20645049;28;20111;-39
2024/03/03 08:24:32;;;;;;;13.85;8.05;;;10.70;1.00;;;;;;20641701;28;20505;-39
2024/03/03 08:34:34;;;;;;;12.07;7.22;;;11.20;1.00;;;;;;20679250;28;20053;-39
2024/03/03 08:44:35;;;;;;;11.52;6.75;;;11.50;1.00;;;;;;20679921;28;20042;-39
2024/03/03 08:54:36;;;;;;;11.63;6.68;;;11.70;1.00;;;;;;20658786;28;20052;-39
2024/03/03 09:04:40;;;;;;;11.52;6.88;;;11.70;1.00;;;;;;20673193;28;20270;-39
2024/03/03 09:14:41;;;;;;;8.55;5.57;;;11.70;1.00;;;;;;20644533;28;20074;-39
2024/03/03 09:24:46;;;;;;;8.60;5.40;;;11.90;1.00;;;;;;20700570;28;20054;-39
2024/03/03 09:34:47;;;;;;;9.70;5.80;;;12.00;1.00;;;;;;20611861;28;20599;-39
2024/03/03 09:44:53;;;;;;;8.32;4.63;;;12.00;1.00;;;;;;20616429;28;20528;-40
2024/03/03 09:54:55;;;;;;;8.40;5.43;;;12.20;1.00;;;;;;20609382;28;20050;-39
2024/03/03 10:04:57;;;;;;;9.10;5.15;;;12.70;1.00;;;;;;20688814;28;20483;-40
2024/03/03 10:15:00;;;;;;;9.30;5.47;;;13.10;1.00;;;;;;20699004;28;20050;-39
2024/03/03 10:25:18;;;;;;;9.00;5.28;;;13.20;1.00;;;;;;20628651;28;20567;-39
2024/03/03 10:35:18;;;;;;;5.90;3.72;;;13.30;1.00;;;;;;20665662;28;20057;-39
2024/03/03 10:45:19;;;;;;;9.37;5.27;;;13.40;1.00;;;;;;20649769;28;20433;-39
2024/03/03 10:55:20;;;;;;;8.17;4.80;;;13.50;1.00;;;;;;20710082;28;20467;-39
2024/03/03 11:05:21;;;;;;;6.05;3.40;;;13.70;1.00;;;;;;20707277;28;20445;-39
2024/03/03 11:15:22;;;;;;;5.93;3.40;;;13.80;1.00;;;;;;20695567;28;20049;-40
2024/03/03 11:25:27;;;;;;;5.97;3.38;;;14.70;1.00;;;;;;20697572;28;20038;-39
2024/03/03 11:35:28;;;;;;;7.45;2.45;;;15.50;1.00;;;;;;20702258;28;20050;-40
2024/03/03 11:45:48;;;;;;;5.32;2.50;;;15.10;1.00;;;;;;20697769;28;20053;-40
2024/03/03 11:55:50;;;;;;;3.65;1.90;;;15.30;1.00;;;;;;20701421;28;20049;-40
2024/03/03 12:05:52;;;;;;;4.22;2.08;;;15.30;1.00;;;;;;20699195;28;20532;-40
2024/03/03 12:15:52;;;;;;;3.53;1.70;;;14.90;1.00;;;;;;20660708;28;20042;-40
2024/03/03 12:25:54;;;;;;;3.92;1.90;;;15.80;1.00;;;;;;20642060;28;20049;-40
2024/03/03 12:35:56;;;;;;;6.45;2.80;;;15.70;1.00;;;;;;20690890;28;20050;-40
2024/03/03 12:45:57;;;;;;;3.70;1.75;;;16.50;1.00;;;;;;20654337;28;20494;-40
2024/03/03 12:56:14;;;;;;;4.05;2.00;;;18.20;1.00;;;;;;20661559;28;20512;-40
2024/03/03 13:06:17;;;;;;;3.73;1.90;;;18.10;1.00;;;;;;20692315;28;20057;-40
2024/03/03 13:16:17;;;;;;;3.63;1.90;;;17.40;1.00;;;;;;20679513;28;20233;-40
2024/03/03 13:26:18;;;;;;;4.45;2.50;;;17.80;1.00;;;;;;20697745;28;20042;-40
2024/03/03 13:36:18;;;;;;;4.35;2.22;;;18.30;1.00;;;;;;20656708;28;20053;-40
2024/03/03 13:46:19;;;;;;;4.57;1.70;;;18.10;1.00;;;;;;20708100;28;20022;-40
2024/03/03 13:56:20;;;;;;;3.60;1.80;;;17.70;1.00;;;;;;20699122;28;20037;-40
2024/03/03 14:06:20;;;;;;;3.90;1.40;;;19.00;1.00;;;;;;20681227;28;20080;-40
2024/03/03 14:16:21;;;;;;;2.60;1.25;;;20.20;1.00;;;;;;20683214;28;20185;-40
2024/03/03 14:26:22;;;;;;;20.47;14.67;;;19.50;1.00;;;;;;20695845;28;20036;-40
2024/03/03 14:36:23;;;;;;;3.78;1.70;;;20.00;1.00;;;;;;20709135;28;20060;-40
2024/03/03 14:46:24;;;;;;;6.75;4.35;;;20.20;1.00;;;;;;20660286;28;20041;-40
2024/03/03 14:56:26;;;;;;;4.20;2.73;;;18.80;1.00;;;;;;20662958;28;20034;-40
2024/03/03 15:06:26;;;;;;;52.42;32.53;;;17.30;1.00;;;;;;20668891;28;20895;-40
2024/03/03 15:16:27;;;;;;;6.47;3.60;;;16.60;1.00;;;;;;20668466;28;20045;-39
2024/03/03 15:26:28;;;;;;;8.00;3.95;;;16.10;1.00;;;;;;20660334;28;20034;-39
2024/03/03 15:36:28;;;;;;;6.53;4.30;;;16.00;1.00;;;;;;20679219;28;20564;-40
2024/03/03 15:46:29;;;;;;;7.73;4.20;;;16.20;1.00;;;;;;20680262;28;20042;-40
2024/03/03 15:56:30;;;;;;;7.25;4.22;;;15.80;1.00;;;;;;20671833;28;20540;-40
2024/03/03 16:06:31;;;;;;;7.72;5.38;;;15.30;1.00;;;;;;20642164;28;20051;-40
2024/03/03 16:16:33;;;;;;;7.65;3.60;;;15.10;1.00;;;;;;20681204;28;20042;-39
2024/03/03 16:26:34;;;;;;;5.65;3.40;;;14.80;1.00;;;;;;20672482;28;20047;-39
2024/03/03 16:36:35;;;;;;;6.72;4.38;;;14.70;1.00;;;;;;20626749;28;20054;-39
2024/03/03 16:46:35;;;;;;;5.95;3.42;;;14.50;1.00;;;;;;20601277;28;20101;-39
2024/03/03 16:56:36;;;;;;;9.57;6.10;;;14.50;1.00;;;;;;20679185;28;20042;-39
2024/03/03 17:06:37;;;;;;;14.70;9.85;;;14.30;1.00;;;;;;20660026;28;20041;-39
2024/03/03 17:16:38;;;;;;;14.33;10.37;;;13.80;1.00;;;;;;20631689;28;20112;-39
2024/03/03 17:26:39;;;;;;;13.43;9.68;;;13.30;1.00;;;;;;20641235;28;20939;-39
2024/03/03 17:36:40;;;;;;;15.50;10.77;;;12.80;1.00;;;;;;20675327;28;20457;-39
2024/03/03 17:46:41;;;;;;;15.55;11.13;;;12.50;1.00;;;;;;20695072;28;20436;-39
2024/03/03 17:56:42;;;;;;;17.50;11.65;;;12.20;1.00;;;;;;20687774;28;20045;-39
2024/03/03 18:06:43;;;;;;;19.77;13.25;;;12.00;1.00;;;;;;20669755;28;20038;-39
2024/03/03 18:16:43;;;;;;;20.00;12.85;;;11.90;1.00;;;;;;20640903;28;20050;-39
2024/03/03 18:26:44;;;;;;;18.42;13.02;;;11.70;1.00;;;;;;20671146;28;20586;-39
2024/03/03 18:36:44;;;;;;;21.20;15.27;;;11.60;1.00;;;;;;20665442;28;20057;-39
2024/03/03 18:46:45;;;;;;;20.15;15.52;;;11.60;1.00;;;;;;20689137;28;20065;-39
2024/03/03 18:56:46;;;;;;;18.40;12.63;;;11.40;1.00;;;;;;20660604;28;20485;-39
2024/03/03 19:06:47;;;;;;;19.33;13.63;;;11.10;1.00;;;;;;20680573;28;20038;-39
2024/03/03 19:16:47;;;;;;;22.00;14.98;;;10.90;1.00;;;;;;20691361;28;20134;-39
2024/03/03 19:26:50;;;;;;;25.73;15.27;;;10.70;1.00;;;;;;20638106;28;20096;-39
2024/03/03 19:36:50;;;;;;;23.77;14.82;;;10.60;1.00;;;;;;20670261;28;20041;-39
2024/03/03 19:46:51;;;;;;;23.00;14.23;;;10.40;5.60;;;;;;20613296;28;20053;-39
2024/03/03 19:56:52;;;;;;;28.88;16.70;;;10.30;12.70;;;;;;20664371;28;20464;-39
2024/03/03 20:06:52;;;;;;;21.45;13.18;;;10.30;24.40;;;;;;20675397;28;20045;-39
2024/03/03 20:16:53;;;;;;;26.00;13.20;;;10.30;28.80;;;;;;20680583;28;20123;-39
2024/03/03 20:26:54;;;;;;;23.77;13.35;;;10.20;23.60;;;;;;20687792;28;20401;-39
2024/03/03 20:36:54;;;;;;;23.90;12.70;;;10.20;28.20;;;;;;20684522;28;20068;-39
2024/03/03 20:46:55;;;;;;;23.45;13.52;;;10.10;25.40;;;;;;20657675;28;20133;-39
2024/03/03 20:56:57;;;;;;;26.52;14.95;;;9.90;29.10;;;;;;20682971;28;20053;-39
2024/03/03 21:06:58;;;;;;;26.13;15.43;;;9.80;28.70;;;;;;20681176;28;20038;-39
2024/03/03 21:17:00;;;;;;;22.63;13.07;;;9.60;37.40;;;;;;20611609;28;20050;-39
2024/03/03 21:27:01;;;;;;;24.77;11.57;;;9.60;46.60;;;;;;20672748;28;20429;-39
2024/03/03 21:37:02;;;;;;;15.73;8.60;;;9.60;42.30;;;;;;20673002;28;20274;-39
2024/03/03 21:47:03;;;;;;;21.52;9.60;;;9.50;40.30;;;;;;20693956;28;20084;-39
2024/03/03 21:57:04;;;;;;;21.80;10.68;;;9.40;39.60;;;;;;20670847;28;20038;-39
2024/03/03 22:07:04;;;;;;;17.70;10.20;;;9.40;46.00;;;;;;20665728;28;20092;-39
2024/03/03 22:17:05;;;;;;;17.05;9.95;;;9.30;50.70;;;;;;20639232;28;20384;-39
2024/03/03 22:27:06;;;;;;;20.65;8.95;;;9.30;54.60;;;;;;20607491;28;20042;-39
2024/03/03 22:37:07;;;;;;;18.42;7.72;;;9.20;55.90;;;;;;20604513;28;20063;-39
2024/03/03 22:47:08;;;;;;;19.38;9.07;;;9.20;58.70;;;;;;20645510;28;20038;-39
2024/03/03 22:57:09;;;;;;;18.08;8.82;;;9.20;62.60;;;;;;20625626;28;20053;-39
2024/03/03 23:07:09;;;;;;;15.48;9.02;;;9.20;48.50;;;;;;20669005;28;20026;-39
2024/03/03 23:17:10;;;;;;;15.80;8.90;;;9.10;49.00;;;;;;20692078;28;20049;-39
2024/03/03 23:27:10;;;;;;;17.23;8.55;;;9.20;48.70;;;;;;20684336;28;20486;-39
2024/03/03 23:37:13;;;;;;;19.15;7.95;;;9.10;52.90;;;;;;20697326;28;20111;-39
2024/03/03 23:47:13;;;;;;;17.65;8.18;;;9.10;48.00;;;;;;20690033;28;20034;-39
2024/03/03 23:57:14;;;;;;;16.85;6.82;;;9.00;53.90;;;;;;20684637;28;20053;-39
